sensor_id;sensor_type;location;lat;lon;timestamp;temperature;humidity
23116;DHT22;11727;52.134;5.052;2024-01-16T00:02:01;0.50;99.90
23116;DHT22;11727;52.134;5.052;2024-01-16T00:04:26;0.60;99.90
23116;DHT22;11727;52.134;5.052;2024-01-16T00:06:55;0.60;99.90
23116;DHT22;11727;52.134;5.052;2024-01-16T00:09:20;0.60;99.90
23116;DHT22;11727;52.134;5.052;2024-01-16T00:11:46;0.60;99.90
23116;DHT22;11727;52.134;5.052;2024-01-16T00:14:11;0.60;99.90
23116;DHT22;11727;52.134;5.052;2024-01-16T00:16:46;0.60;99.90
23116;DHT22;11727;52.134;5.052;2024-01-16T00:19:13;0.60;99.90
23116;DHT22;11727;52.134;5.052;2024-01-16T00:21:45;0.60;99.90
23116;DHT22;11727;52.134;5.052;2024-01-16T00:24:12;0.60;99.90
23116;DHT22;11727;52.134;5.052;2024-01-16T00:26:37;0.50;99.90
23116;DHT22;11727;52.134;5.052;2024-01-16T00:29:03;0.60;99.90
23116;DHT22;11727;52.134;5.052;2024-01-16T00:31:29;0.50;99.90
23116;DHT22;11727;52.134;5.052;2024-01-16T00:33:54;0.50;99.90
23116;DHT22;11727;52.134;5.052;2024-01-16T00:36:20;0.60;99.90
23116;DHT22;11727;52.134;5.052;2024-01-16T00:38:45;0.60;99.90
23116;DHT22;11727;52.134;5.052;2024-01-16T00:41:12;0.60;99.90
23116;DHT22;11727;52.134;5.052;2024-01-16T00:43:40;0.60;99.90
23116;DHT22;11727;52.134;5.052;2024-01-16T00:46:06;0.60;99.90
23116;DHT22;11727;52.134;5.052;2024-01-16T00:48:32;0.60;99.90
23116;DHT22;11727;52.134;5.052;2024-01-16T00:50:57;0.60;99.90
23116;DHT22;11727;52.134;5.052;2024-01-16T00:53:23;0.60;99.90
23116;DHT22;11727;52.134;5.052;2024-01-16T00:55:48;0.60;99.90
23116;DHT22;11727;52.134;5.052;2024-01-16T00:58:14;0.60;99.90
23116;DHT22;11727;52.134;5.052;2024-01-16T01:00:40;0.60;99.90
23116;DHT22;11727;52.134;5.052;2024-01-16T01:03:06;0.60;99.90
23116;DHT22;11727;52.134;5.052;2024-01-16T01:05:31;0.60;99.90
23116;DHT22;11727;52.134;5.052;2024-01-16T01:07:57;0.60;99.90
23116;DHT22;11727;52.134;5.052;2024-01-16T01:10:23;0.60;99.90
23116;DHT22;11727;52.134;5.052;2024-01-16T01:12:49;0.60;99.90
23116;DHT22;11727;52.134;5.052;2024-01-16T01:15:17;0.60;99.90
23116;DHT22;11727;52.134;5.052;2024-01-16T01:17:42;0.60;99.90
23116;DHT22;11727;52.134;5.052;2024-01-16T01:20:08;0.60;99.90
23116;DHT22;11727;52.134;5.052;2024-01-16T01:22:34;0.60;99.90
23116;DHT22;11727;52.134;5.052;2024-01-16T01:25:00;0.60;99.90
23116;DHT22;11727;52.134;5.052;2024-01-16T01:27:26;0.70;99.90
23116;DHT22;11727;52.134;5.052;2024-01-16T01:29:51;0.70;99.90
23116;DHT22;11727;52.134;5.052;2024-01-16T01:32:17;0.70;99.90
23116;DHT22;11727;52.134;5.052;2024-01-16T01:34:43;0.70;99.90
23116;DHT22;11727;52.134;5.052;2024-01-16T01:37:08;0.70;99.90
23116;DHT22;11727;52.134;5.052;2024-01-16T01:39:34;0.70;99.90
23116;DHT22;11727;52.134;5.052;2024-01-16T01:41:59;0.70;99.90
23116;DHT22;11727;52.134;5.052;2024-01-16T01:44:25;0.70;99.90
23116;DHT22;11727;52.134;5.052;2024-01-16T01:46:53;0.70;99.90
23116;DHT22;11727;52.134;5.052;2024-01-16T01:49:19;0.60;99.90
23116;DHT22;11727;52.134;5.052;2024-01-16T01:51:45;0.60;99.90
23116;DHT22;11727;52.134;5.052;2024-01-16T01:54:12;0.60;99.90
23116;DHT22;11727;52.134;5.052;2024-01-16T01:56:38;0.60;99.90
23116;DHT22;11727;52.134;5.052;2024-01-16T01:59:05;0.60;99.90
23116;DHT22;11727;52.134;5.052;2024-01-16T02:01:32;0.60;99.90
23116;DHT22;11727;52.134;5.052;2024-01-16T02:03:59;0.60;99.90
23116;DHT22;11727;52.134;5.052;2024-01-16T02:06:25;0.60;99.90
23116;DHT22;11727;52.134;5.052;2024-01-16T02:08:51;0.60;99.90
23116;DHT22;11727;52.134;5.052;2024-01-16T02:11:17;0.60;99.90
23116;DHT22;11727;52.134;5.052;2024-01-16T02:13:42;0.60;99.90
23116;DHT22;11727;52.134;5.052;2024-01-16T02:16:21;0.60;99.90
23116;DHT22;11727;52.134;5.052;2024-01-16T02:18:47;0.60;99.90
23116;DHT22;11727;52.134;5.052;2024-01-16T02:21:17;0.60;99.90
23116;DHT22;11727;52.134;5.052;2024-01-16T02:23:43;0.60;99.90
23116;DHT22;11727;52.134;5.052;2024-01-16T02:26:09;0.70;99.90
23116;DHT22;11727;52.134;5.052;2024-01-16T02:28:35;0.70;99.90
23116;DHT22;11727;52.134;5.052;2024-01-16T02:31:00;0.70;99.90
23116;DHT22;11727;52.134;5.052;2024-01-16T02:33:26;0.60;99.90
23116;DHT22;11727;52.134;5.052;2024-01-16T02:35:51;0.70;99.90
23116;DHT22;11727;52.134;5.052;2024-01-16T02:38:17;0.60;99.90
23116;DHT22;11727;52.134;5.052;2024-01-16T02:40:43;0.70;99.90
23116;DHT22;11727;52.134;5.052;2024-01-16T02:43:08;0.60;99.90
23116;DHT22;11727;52.134;5.052;2024-01-16T02:45:34;0.70;99.90
23116;DHT22;11727;52.134;5.052;2024-01-16T02:47:59;0.70;99.90
23116;DHT22;11727;52.134;5.052;2024-01-16T02:50:25;0.70;99.90
23116;DHT22;11727;52.134;5.052;2024-01-16T02:52:51;0.70;99.90
23116;DHT22;11727;52.134;5.052;2024-01-16T02:55:17;0.70;99.90
23116;DHT22;11727;52.134;5.052;2024-01-16T02:57:42;0.70;99.90
23116;DHT22;11727;52.134;5.052;2024-01-16T03:00:08;0.70;99.90
23116;DHT22;11727;52.134;5.052;2024-01-16T03:02:34;0.70;99.90
23116;DHT22;11727;52.134;5.052;2024-01-16T03:04:59;0.70;99.90
23116;DHT22;11727;52.134;5.052;2024-01-16T03:07:25;0.60;99.90
23116;DHT22;11727;52.134;5.052;2024-01-16T03:09:51;0.60;99.90
23116;DHT22;11727;52.134;5.052;2024-01-16T03:12:16;0.60;99.90
23116;DHT22;11727;52.134;5.052;2024-01-16T03:14:42;0.60;99.90
23116;DHT22;11727;52.134;5.052;2024-01-16T03:17:08;0.60;99.90
23116;DHT22;11727;52.134;5.052;2024-01-16T03:19:34;0.60;99.90
23116;DHT22;11727;52.134;5.052;2024-01-16T03:21:59;0.50;99.90
23116;DHT22;11727;52.134;5.052;2024-01-16T03:24:25;0.50;99.90
23116;DHT22;11727;52.134;5.052;2024-01-16T03:26:51;0.50;99.90
23116;DHT22;11727;52.134;5.052;2024-01-16T03:29:17;0.60;99.90
23116;DHT22;11727;52.134;5.052;2024-01-16T03:31:42;0.60;99.90
23116;DHT22;11727;52.134;5.052;2024-01-16T03:34:08;0.60;99.90
23116;DHT22;11727;52.134;5.052;2024-01-16T03:36:36;0.60;99.90
23116;DHT22;11727;52.134;5.052;2024-01-16T03:39:01;0.60;99.90
23116;DHT22;11727;52.134;5.052;2024-01-16T03:41:27;0.60;99.90
23116;DHT22;11727;52.134;5.052;2024-01-16T03:43:52;0.60;99.90
23116;DHT22;11727;52.134;5.052;2024-01-16T03:46:22;0.60;99.90
23116;DHT22;11727;52.134;5.052;2024-01-16T03:48:47;0.70;99.90
23116;DHT22;11727;52.134;5.052;2024-01-16T03:51:13;0.60;99.90
23116;DHT22;11727;52.134;5.052;2024-01-16T03:53:41;0.60;99.90
23116;DHT22;11727;52.134;5.052;2024-01-16T03:56:07;0.70;99.90
23116;DHT22;11727;52.134;5.052;2024-01-16T03:58:35;0.70;99.90
23116;DHT22;11727;52.134;5.052;2024-01-16T04:01:01;0.70;99.90
23116;DHT22;11727;52.134;5.052;2024-01-16T04:03:26;0.70;99.90
23116;DHT22;11727;52.134;5.052;2024-01-16T04:05:52;0.70;99.90
23116;DHT22;11727;52.134;5.052;2024-01-16T04:08:17;0.70;99.90
23116;DHT22;11727;52.134;5.052;2024-01-16T04:10:43;0.70;99.90
23116;DHT22;11727;52.134;5.052;2024-01-16T04:13:09;0.70;99.90
23116;DHT22;11727;52.134;5.052;2024-01-16T04:15:38;0.70;99.90
23116;DHT22;11727;52.134;5.052;2024-01-16T04:18:04;0.70;99.90
23116;DHT22;11727;52.134;5.052;2024-01-16T04:20:29;0.70;99.90
23116;DHT22;11727;52.134;5.052;2024-01-16T04:22:56;0.70;99.90
23116;DHT22;11727;52.134;5.052;2024-01-16T04:25:23;0.80;99.90
23116;DHT22;11727;52.134;5.052;2024-01-16T04:27:48;0.70;99.90
23116;DHT22;11727;52.134;5.052;2024-01-16T04:30:14;0.80;99.90
23116;DHT22;11727;52.134;5.052;2024-01-16T04:32:40;0.70;99.90
23116;DHT22;11727;52.134;5.052;2024-01-16T04:35:05;0.70;99.90
23116;DHT22;11727;52.134;5.052;2024-01-16T04:37:31;0.70;99.90
23116;DHT22;11727;52.134;5.052;2024-01-16T04:39:57;0.80;99.90
23116;DHT22;11727;52.134;5.052;2024-01-16T04:42:23;0.70;99.90
23116;DHT22;11727;52.134;5.052;2024-01-16T04:44:49;0.70;99.90
23116;DHT22;11727;52.134;5.052;2024-01-16T04:47:14;0.70;99.90
23116;DHT22;11727;52.134;5.052;2024-01-16T04:49:41;0.70;99.90
23116;DHT22;11727;52.134;5.052;2024-01-16T04:52:07;0.70;99.90
23116;DHT22;11727;52.134;5.052;2024-01-16T04:54:33;0.70;99.90
23116;DHT22;11727;52.134;5.052;2024-01-16T04:56:58;0.70;99.90
23116;DHT22;11727;52.134;5.052;2024-01-16T04:59:24;0.70;99.90
23116;DHT22;11727;52.134;5.052;2024-01-16T05:01:50;0.70;99.90
23116;DHT22;11727;52.134;5.052;2024-01-16T05:04:16;0.80;99.90
23116;DHT22;11727;52.134;5.052;2024-01-16T05:06:41;0.80;99.90
23116;DHT22;11727;52.134;5.052;2024-01-16T05:09:07;0.70;99.90
23116;DHT22;11727;52.134;5.052;2024-01-16T05:11:34;0.80;99.90
23116;DHT22;11727;52.134;5.052;2024-01-16T05:14:00;0.70;99.90
23116;DHT22;11727;52.134;5.052;2024-01-16T05:16:26;0.80;99.90
23116;DHT22;11727;52.134;5.052;2024-01-16T05:18:53;0.70;99.90
23116;DHT22;11727;52.134;5.052;2024-01-16T05:21:19;0.80;99.90
23116;DHT22;11727;52.134;5.052;2024-01-16T05:23:45;0.80;99.90
23116;DHT22;11727;52.134;5.052;2024-01-16T05:26:11;0.80;99.90
23116;DHT22;11727;52.134;5.052;2024-01-16T05:28:39;0.80;99.90
23116;DHT22;11727;52.134;5.052;2024-01-16T05:31:04;0.70;99.90
23116;DHT22;11727;52.134;5.052;2024-01-16T05:33:30;0.70;99.90
23116;DHT22;11727;52.134;5.052;2024-01-16T05:35:57;0.70;99.90
23116;DHT22;11727;52.134;5.052;2024-01-16T05:38:23;0.80;99.90
23116;DHT22;11727;52.134;5.052;2024-01-16T05:40:48;0.80;99.90
23116;DHT22;11727;52.134;5.052;2024-01-16T05:43:14;0.70;99.90
23116;DHT22;11727;52.134;5.052;2024-01-16T05:45:40;0.70;99.90
23116;DHT22;11727;52.134;5.052;2024-01-16T05:48:06;0.70;99.90
23116;DHT22;11727;52.134;5.052;2024-01-16T05:50:34;0.70;99.90
23116;DHT22;11727;52.134;5.052;2024-01-16T05:53:00;0.60;99.90
23116;DHT22;11727;52.134;5.052;2024-01-16T05:55:25;0.60;99.90
23116;DHT22;11727;52.134;5.052;2024-01-16T05:57:51;0.60;99.90
23116;DHT22;11727;52.134;5.052;2024-01-16T06:00:17;0.60;99.90
23116;DHT22;11727;52.134;5.052;2024-01-16T06:02:44;0.60;99.90
23116;DHT22;11727;52.134;5.052;2024-01-16T06:05:09;0.70;99.90
23116;DHT22;11727;52.134;5.052;2024-01-16T06:07:35;0.70;99.90
23116;DHT22;11727;52.134;5.052;2024-01-16T06:10:01;0.70;99.90
23116;DHT22;11727;52.134;5.052;2024-01-16T06:12:26;0.70;99.90
23116;DHT22;11727;52.134;5.052;2024-01-16T06:14:52;0.70;99.90
23116;DHT22;11727;52.134;5.052;2024-01-16T06:17:17;0.70;99.90
23116;DHT22;11727;52.134;5.052;2024-01-16T06:19:43;0.70;99.90
23116;DHT22;11727;52.134;5.052;2024-01-16T06:22:08;0.70;99.90
23116;DHT22;11727;52.134;5.052;2024-01-16T06:24:34;0.70;99.90
23116;DHT22;11727;52.134;5.052;2024-01-16T06:27:06;0.60;99.90
23116;DHT22;11727;52.134;5.052;2024-01-16T06:29:32;0.70;99.90
23116;DHT22;11727;52.134;5.052;2024-01-16T06:31:58;0.70;99.90
23116;DHT22;11727;52.134;5.052;2024-01-16T06:34:24;0.70;99.90
23116;DHT22;11727;52.134;5.052;2024-01-16T06:36:49;0.70;99.90
23116;DHT22;11727;52.134;5.052;2024-01-16T06:39:15;0.70;99.90
23116;DHT22;11727;52.134;5.052;2024-01-16T06:41:41;0.70;99.90
23116;DHT22;11727;52.134;5.052;2024-01-16T06:44:07;0.70;99.90
23116;DHT22;11727;52.134;5.052;2024-01-16T06:46:33;0.70;99.90
23116;DHT22;11727;52.134;5.052;2024-01-16T06:48:58;0.70;99.90
23116;DHT22;11727;52.134;5.052;2024-01-16T06:51:24;0.80;99.90
23116;DHT22;11727;52.134;5.052;2024-01-16T06:53:49;0.80;99.90
23116;DHT22;11727;52.134;5.052;2024-01-16T06:56:15;0.80;99.90
23116;DHT22;11727;52.134;5.052;2024-01-16T06:58:40;0.80;99.90
23116;DHT22;11727;52.134;5.052;2024-01-16T07:01:06;0.80;99.90
23116;DHT22;11727;52.134;5.052;2024-01-16T07:03:34;0.80;99.90
23116;DHT22;11727;52.134;5.052;2024-01-16T07:05:59;0.80;99.90
23116;DHT22;11727;52.134;5.052;2024-01-16T07:08:25;0.80;99.90
23116;DHT22;11727;52.134;5.052;2024-01-16T07:10:51;0.80;99.90
23116;DHT22;11727;52.134;5.052;2024-01-16T07:13:16;0.80;99.90
23116;DHT22;11727;52.134;5.052;2024-01-16T07:15:42;0.80;99.90
23116;DHT22;11727;52.134;5.052;2024-01-16T07:18:07;0.80;99.90
23116;DHT22;11727;52.134;5.052;2024-01-16T07:20:33;0.80;99.90
23116;DHT22;11727;52.134;5.052;2024-01-16T07:22:59;0.80;99.90
23116;DHT22;11727;52.134;5.052;2024-01-16T07:25:24;0.80;99.90
23116;DHT22;11727;52.134;5.052;2024-01-16T07:27:50;0.80;99.90
23116;DHT22;11727;52.134;5.052;2024-01-16T07:30:16;0.80;99.90
23116;DHT22;11727;52.134;5.052;2024-01-16T07:32:41;0.80;99.90
23116;DHT22;11727;52.134;5.052;2024-01-16T07:35:07;0.80;99.90
23116;DHT22;11727;52.134;5.052;2024-01-16T07:37:33;0.80;99.90
23116;DHT22;11727;52.134;5.052;2024-01-16T07:39:58;0.80;99.90
23116;DHT22;11727;52.134;5.052;2024-01-16T07:42:24;0.80;99.90
23116;DHT22;11727;52.134;5.052;2024-01-16T07:44:50;0.80;99.90
23116;DHT22;11727;52.134;5.052;2024-01-16T07:47:16;0.80;99.90
23116;DHT22;11727;52.134;5.052;2024-01-16T07:49:42;0.80;99.90
23116;DHT22;11727;52.134;5.052;2024-01-16T07:52:08;0.80;99.90
23116;DHT22;11727;52.134;5.052;2024-01-16T07:54:34;0.80;99.90
23116;DHT22;11727;52.134;5.052;2024-01-16T07:57:00;0.80;99.90
23116;DHT22;11727;52.134;5.052;2024-01-16T07:59:25;0.70;99.90
23116;DHT22;11727;52.134;5.052;2024-01-16T08:01:52;0.80;99.90
23116;DHT22;11727;52.134;5.052;2024-01-16T08:04:18;0.80;99.90
23116;DHT22;11727;52.134;5.052;2024-01-16T08:06:45;0.80;99.90
23116;DHT22;11727;52.134;5.052;2024-01-16T08:09:11;0.70;99.90
23116;DHT22;11727;52.134;5.052;2024-01-16T08:11:37;0.70;99.90
23116;DHT22;11727;52.134;5.052;2024-01-16T08:14:05;0.70;99.90
23116;DHT22;11727;52.134;5.052;2024-01-16T08:16:30;0.70;99.90
23116;DHT22;11727;52.134;5.052;2024-01-16T08:18:56;0.60;99.90
23116;DHT22;11727;52.134;5.052;2024-01-16T08:21:22;0.60;99.90
23116;DHT22;11727;52.134;5.052;2024-01-16T08:23:47;0.60;99.90
23116;DHT22;11727;52.134;5.052;2024-01-16T08:26:13;0.60;99.90
23116;DHT22;11727;52.134;5.052;2024-01-16T08:28:39;0.60;99.90
23116;DHT22;11727;52.134;5.052;2024-01-16T08:31:04;0.60;99.90
23116;DHT22;11727;52.134;5.052;2024-01-16T08:33:30;0.60;99.90
23116;DHT22;11727;52.134;5.052;2024-01-16T08:35:56;0.60;99.90
23116;DHT22;11727;52.134;5.052;2024-01-16T08:38:22;0.60;99.90
23116;DHT22;11727;52.134;5.052;2024-01-16T08:40:48;0.60;99.90
23116;DHT22;11727;52.134;5.052;2024-01-16T08:43:14;0.60;99.90
23116;DHT22;11727;52.134;5.052;2024-01-16T08:45:39;0.60;99.90
23116;DHT22;11727;52.134;5.052;2024-01-16T08:48:07;0.60;99.90
23116;DHT22;11727;52.134;5.052;2024-01-16T08:50:32;0.60;99.90
23116;DHT22;11727;52.134;5.052;2024-01-16T08:52:58;0.60;99.90
23116;DHT22;11727;52.134;5.052;2024-01-16T08:55:24;0.60;99.90
23116;DHT22;11727;52.134;5.052;2024-01-16T08:57:49;0.60;99.90
23116;DHT22;11727;52.134;5.052;2024-01-16T09:00:15;0.60;99.90
23116;DHT22;11727;52.134;5.052;2024-01-16T09:02:41;0.70;99.90
23116;DHT22;11727;52.134;5.052;2024-01-16T09:05:10;0.70;99.90
23116;DHT22;11727;52.134;5.052;2024-01-16T09:07:35;0.70;99.90
23116;DHT22;11727;52.134;5.052;2024-01-16T09:10:01;0.70;99.90
23116;DHT22;11727;52.134;5.052;2024-01-16T09:12:27;0.70;99.90
23116;DHT22;11727;52.134;5.052;2024-01-16T09:14:53;0.70;99.90
23116;DHT22;11727;52.134;5.052;2024-01-16T09:17:18;0.70;99.90
23116;DHT22;11727;52.134;5.052;2024-01-16T09:19:44;0.70;99.90
23116;DHT22;11727;52.134;5.052;2024-01-16T09:22:09;0.70;99.90
23116;DHT22;11727;52.134;5.052;2024-01-16T09:24:35;0.70;99.90
23116;DHT22;11727;52.134;5.052;2024-01-16T09:27:01;0.70;99.90
23116;DHT22;11727;52.134;5.052;2024-01-16T09:29:26;0.70;99.90
23116;DHT22;11727;52.134;5.052;2024-01-16T09:31:52;0.70;99.90
23116;DHT22;11727;52.134;5.052;2024-01-16T09:34:18;0.70;99.90
23116;DHT22;11727;52.134;5.052;2024-01-16T09:36:43;0.70;99.90
23116;DHT22;11727;52.134;5.052;2024-01-16T09:39:09;0.70;99.90
23116;DHT22;11727;52.134;5.052;2024-01-16T09:41:39;0.70;99.90
23116;DHT22;11727;52.134;5.052;2024-01-16T09:44:05;0.70;99.90
23116;DHT22;11727;52.134;5.052;2024-01-16T09:46:32;0.70;99.90
23116;DHT22;11727;52.134;5.052;2024-01-16T09:49:00;0.70;99.90
23116;DHT22;11727;52.134;5.052;2024-01-16T09:51:28;0.70;99.90
23116;DHT22;11727;52.134;5.052;2024-01-16T09:53:53;0.70;99.90
23116;DHT22;11727;52.134;5.052;2024-01-16T09:56:22;0.80;99.90
23116;DHT22;11727;52.134;5.052;2024-01-16T09:58:51;0.80;99.90
23116;DHT22;11727;52.134;5.052;2024-01-16T10:01:19;0.80;99.90
23116;DHT22;11727;52.134;5.052;2024-01-16T10:03:45;0.80;99.90
23116;DHT22;11727;52.134;5.052;2024-01-16T10:06:12;0.80;99.90
23116;DHT22;11727;52.134;5.052;2024-01-16T10:08:39;0.80;99.90
23116;DHT22;11727;52.134;5.052;2024-01-16T10:11:05;0.80;99.90
23116;DHT22;11727;52.134;5.052;2024-01-16T10:13:32;0.80;99.90
23116;DHT22;11727;52.134;5.052;2024-01-16T10:15:58;0.80;99.90
23116;DHT22;11727;52.134;5.052;2024-01-16T10:18:29;0.80;99.90
23116;DHT22;11727;52.134;5.052;2024-01-16T10:20:56;0.90;99.90
23116;DHT22;11727;52.134;5.052;2024-01-16T10:23:26;0.90;99.90
23116;DHT22;11727;52.134;5.052;2024-01-16T10:26:11;1.00;99.90
23116;DHT22;11727;52.134;5.052;2024-01-16T10:28:42;1.10;99.90
23116;DHT22;11727;52.134;5.052;2024-01-16T10:31:09;1.00;99.90
23116;DHT22;11727;52.134;5.052;2024-01-16T10:33:35;1.10;99.90
23116;DHT22;11727;52.134;5.052;2024-01-16T10:36:11;1.10;99.90
23116;DHT22;11727;52.134;5.052;2024-01-16T10:38:42;1.10;99.90
23116;DHT22;11727;52.134;5.052;2024-01-16T10:41:13;1.20;99.90
23116;DHT22;11727;52.134;5.052;2024-01-16T10:43:40;1.20;99.90
23116;DHT22;11727;52.134;5.052;2024-01-16T10:46:16;1.20;99.90
23116;DHT22;11727;52.134;5.052;2024-01-16T10:48:44;1.30;99.90
23116;DHT22;11727;52.134;5.052;2024-01-16T10:51:11;1.30;99.90
23116;DHT22;11727;52.134;5.052;2024-01-16T10:53:42;1.30;99.90
23116;DHT22;11727;52.134;5.052;2024-01-16T10:56:10;1.40;99.90
23116;DHT22;11727;52.134;5.052;2024-01-16T10:58:40;1.30;99.90
23116;DHT22;11727;52.134;5.052;2024-01-16T11:01:10;1.40;99.90
23116;DHT22;11727;52.134;5.052;2024-01-16T11:03:50;1.30;99.90
23116;DHT22;11727;52.134;5.052;2024-01-16T11:06:18;1.30;99.90
23116;DHT22;11727;52.134;5.052;2024-01-16T11:08:47;1.30;99.90
23116;DHT22;11727;52.134;5.052;2024-01-16T11:11:14;1.30;99.90
23116;DHT22;11727;52.134;5.052;2024-01-16T11:13:41;1.30;99.90
23116;DHT22;11727;52.134;5.052;2024-01-16T11:16:10;1.30;99.90
23116;DHT22;11727;52.134;5.052;2024-01-16T11:18:37;1.30;99.90
23116;DHT22;11727;52.134;5.052;2024-01-16T11:21:06;1.20;99.90
23116;DHT22;11727;52.134;5.052;2024-01-16T11:23:32;1.30;99.90
23116;DHT22;11727;52.134;5.052;2024-01-16T11:25:58;1.20;99.90
23116;DHT22;11727;52.134;5.052;2024-01-16T11:28:28;1.20;99.90
23116;DHT22;11727;52.134;5.052;2024-01-16T11:30:57;1.30;99.90
23116;DHT22;11727;52.134;5.052;2024-01-16T11:35:57;1.30;99.90
23116;DHT22;11727;52.134;5.052;2024-01-16T11:38:24;1.30;99.90
23116;DHT22;11727;52.134;5.052;2024-01-16T11:40:52;1.40;99.90
23116;DHT22;11727;52.134;5.052;2024-01-16T11:46:08;1.40;99.90
23116;DHT22;11727;52.134;5.052;2024-01-16T11:48:34;1.40;99.90
23116;DHT22;11727;52.134;5.052;2024-01-16T11:51:24;1.50;99.90
23116;DHT22;11727;52.134;5.052;2024-01-16T11:53:50;1.50;99.90
23116;DHT22;11727;52.134;5.052;2024-01-16T11:59:14;1.60;99.90
23116;DHT22;11727;52.134;5.052;2024-01-16T12:01:45;1.80;99.90
23116;DHT22;11727;52.134;5.052;2024-01-16T12:04:11;1.80;99.90
23116;DHT22;11727;52.134;5.052;2024-01-16T12:06:37;2.00;99.90
23116;DHT22;11727;52.134;5.052;2024-01-16T12:09:15;2.00;99.90
23116;DHT22;11727;52.134;5.052;2024-01-16T12:11:41;2.10;99.90
23116;DHT22;11727;52.134;5.052;2024-01-16T12:14:13;2.20;99.90
23116;DHT22;11727;52.134;5.052;2024-01-16T12:16:39;2.20;99.90
23116;DHT22;11727;52.134;5.052;2024-01-16T12:21:44;2.20;99.90
23116;DHT22;11727;52.134;5.052;2024-01-16T12:24:11;2.20;99.90
23116;DHT22;11727;52.134;5.052;2024-01-16T12:26:37;2.20;99.90
23116;DHT22;11727;52.134;5.052;2024-01-16T12:29:03;2.20;99.90
23116;DHT22;11727;52.134;5.052;2024-01-16T12:31:29;2.30;99.90
23116;DHT22;11727;52.134;5.052;2024-01-16T12:34:08;2.20;99.90
23116;DHT22;11727;52.134;5.052;2024-01-16T12:36:34;2.20;99.90
23116;DHT22;11727;52.134;5.052;2024-01-16T12:39:00;2.10;99.90
23116;DHT22;11727;52.134;5.052;2024-01-16T12:41:28;2.00;99.90
23116;DHT22;11727;52.134;5.052;2024-01-16T12:43:56;2.00;99.90
23116;DHT22;11727;52.134;5.052;2024-01-16T12:46:21;1.90;99.90
23116;DHT22;11727;52.134;5.052;2024-01-16T12:48:47;1.90;99.90
23116;DHT22;11727;52.134;5.052;2024-01-16T12:51:23;1.80;99.90
23116;DHT22;11727;52.134;5.052;2024-01-16T12:53:49;1.80;99.90
23116;DHT22;11727;52.134;5.052;2024-01-16T12:56:19;1.80;99.90
23116;DHT22;11727;52.134;5.052;2024-01-16T12:58:45;1.90;99.90
23116;DHT22;11727;52.134;5.052;2024-01-16T13:01:25;2.10;99.90
23116;DHT22;11727;52.134;5.052;2024-01-16T13:03:52;2.10;99.90
23116;DHT22;11727;52.134;5.052;2024-01-16T13:06:18;2.30;99.90
23116;DHT22;11727;52.134;5.052;2024-01-16T13:08:46;2.30;99.90
23116;DHT22;11727;52.134;5.052;2024-01-16T13:11:11;2.30;99.90
23116;DHT22;11727;52.134;5.052;2024-01-16T13:13:37;2.30;99.90
23116;DHT22;11727;52.134;5.052;2024-01-16T13:16:04;2.30;99.90
23116;DHT22;11727;52.134;5.052;2024-01-16T13:18:31;2.30;99.90
23116;DHT22;11727;52.134;5.052;2024-01-16T13:20:58;2.20;99.90
23116;DHT22;11727;52.134;5.052;2024-01-16T13:23:25;2.20;99.90
23116;DHT22;11727;52.134;5.052;2024-01-16T13:25:51;2.10;99.90
23116;DHT22;11727;52.134;5.052;2024-01-16T13:28:18;2.10;99.90
23116;DHT22;11727;52.134;5.052;2024-01-16T13:30:44;2.10;99.90
23116;DHT22;11727;52.134;5.052;2024-01-16T13:33:10;2.00;99.90
23116;DHT22;11727;52.134;5.052;2024-01-16T13:35:41;2.00;99.90
23116;DHT22;11727;52.134;5.052;2024-01-16T13:38:08;1.90;99.90
23116;DHT22;11727;52.134;5.052;2024-01-16T13:40:35;1.90;99.90
23116;DHT22;11727;52.134;5.052;2024-01-16T13:43:01;1.80;99.90
23116;DHT22;11727;52.134;5.052;2024-01-16T13:45:27;1.80;99.90
23116;DHT22;11727;52.134;5.052;2024-01-16T13:47:54;1.80;99.90
23116;DHT22;11727;52.134;5.052;2024-01-16T13:50:20;1.70;99.90
23116;DHT22;11727;52.134;5.052;2024-01-16T13:52:46;1.70;99.90
23116;DHT22;11727;52.134;5.052;2024-01-16T13:55:12;1.70;99.90
23116;DHT22;11727;52.134;5.052;2024-01-16T13:57:38;1.70;99.90
23116;DHT22;11727;52.134;5.052;2024-01-16T14:00:06;1.70;99.90
23116;DHT22;11727;52.134;5.052;2024-01-16T14:02:32;1.70;99.90
23116;DHT22;11727;52.134;5.052;2024-01-16T14:05:00;1.70;99.90
23116;DHT22;11727;52.134;5.052;2024-01-16T14:07:26;1.70;99.90
23116;DHT22;11727;52.134;5.052;2024-01-16T14:09:51;1.80;99.90
23116;DHT22;11727;52.134;5.052;2024-01-16T14:12:17;1.80;99.90
23116;DHT22;11727;52.134;5.052;2024-01-16T14:14:44;1.80;99.90
23116;DHT22;11727;52.134;5.052;2024-01-16T14:17:10;1.80;99.90
23116;DHT22;11727;52.134;5.052;2024-01-16T14:19:37;1.80;99.90
23116;DHT22;11727;52.134;5.052;2024-01-16T14:22:04;1.80;99.90
23116;DHT22;11727;52.134;5.052;2024-01-16T14:24:30;1.80;99.90
23116;DHT22;11727;52.134;5.052;2024-01-16T14:26:55;1.80;99.90
23116;DHT22;11727;52.134;5.052;2024-01-16T14:29:22;1.80;99.90
23116;DHT22;11727;52.134;5.052;2024-01-16T14:31:48;1.80;99.90
23116;DHT22;11727;52.134;5.052;2024-01-16T14:34:15;1.90;99.90
23116;DHT22;11727;52.134;5.052;2024-01-16T14:36:41;1.90;99.90
23116;DHT22;11727;52.134;5.052;2024-01-16T14:39:07;1.90;99.90
23116;DHT22;11727;52.134;5.052;2024-01-16T14:41:41;1.90;99.90
23116;DHT22;11727;52.134;5.052;2024-01-16T14:44:09;1.90;99.90
23116;DHT22;11727;52.134;5.052;2024-01-16T14:46:35;1.90;99.90
23116;DHT22;11727;52.134;5.052;2024-01-16T14:49:01;1.80;99.90
23116;DHT22;11727;52.134;5.052;2024-01-16T14:51:27;1.90;99.90
23116;DHT22;11727;52.134;5.052;2024-01-16T14:53:53;1.90;99.90
23116;DHT22;11727;52.134;5.052;2024-01-16T14:56:19;1.90;99.90
23116;DHT22;11727;52.134;5.052;2024-01-16T14:58:45;1.90;99.90
23116;DHT22;11727;52.134;5.052;2024-01-16T15:01:11;1.90;99.90
23116;DHT22;11727;52.134;5.052;2024-01-16T15:03:36;2.00;99.90
23116;DHT22;11727;52.134;5.052;2024-01-16T15:06:02;2.00;99.90
23116;DHT22;11727;52.134;5.052;2024-01-16T15:08:30;2.00;99.90
23116;DHT22;11727;52.134;5.052;2024-01-16T15:10:58;2.00;99.90
23116;DHT22;11727;52.134;5.052;2024-01-16T15:13:26;2.00;99.90
23116;DHT22;11727;52.134;5.052;2024-01-16T15:15:52;1.90;99.90
23116;DHT22;11727;52.134;5.052;2024-01-16T15:18:19;1.90;99.90
23116;DHT22;11727;52.134;5.052;2024-01-16T15:20:45;1.90;99.90
23116;DHT22;11727;52.134;5.052;2024-01-16T15:23:11;1.90;99.90
23116;DHT22;11727;52.134;5.052;2024-01-16T15:25:37;1.90;99.90
23116;DHT22;11727;52.134;5.052;2024-01-16T15:28:03;1.90;99.90
23116;DHT22;11727;52.134;5.052;2024-01-16T15:30:28;1.90;99.90
23116;DHT22;11727;52.134;5.052;2024-01-16T15:33:01;1.80;99.90
23116;DHT22;11727;52.134;5.052;2024-01-16T15:35:28;1.80;99.90
23116;DHT22;11727;52.134;5.052;2024-01-16T15:37:54;1.80;99.90
23116;DHT22;11727;52.134;5.052;2024-01-16T15:40:20;1.80;99.90
23116;DHT22;11727;52.134;5.052;2024-01-16T15:42:45;1.80;99.90
23116;DHT22;11727;52.134;5.052;2024-01-16T15:45:11;1.80;99.90
23116;DHT22;11727;52.134;5.052;2024-01-16T15:47:37;1.80;99.90
23116;DHT22;11727;52.134;5.052;2024-01-16T15:50:03;1.80;99.90
23116;DHT22;11727;52.134;5.052;2024-01-16T15:52:32;1.70;99.90